createdAt,value
2022-11-02T00:04:14.067Z,99.9
2022-11-02T00:09:14.063Z,99.9
2022-11-02T00:14:14.077Z,99.9
2022-11-02T00:19:14.103Z,99.9
2022-11-02T00:24:14.071Z,99.9
2022-11-02T00:29:14.067Z,99.9
2022-11-02T00:34:14.074Z,99.9
2022-11-02T00:39:14.094Z,99.9
2022-11-02T00:44:14.061Z,99.9
2022-11-02T00:49:14.067Z,99.9
2022-11-02T00:54:14.061Z,99.9
2022-11-02T00:59:14.081Z,99.9
2022-11-02T01:04:14.058Z,99.9
2022-11-02T01:09:14.071Z,99.9
2022-11-02T01:14:14.062Z,99.9
2022-11-02T01:19:14.082Z,99.9
2022-11-02T01:24:14.054Z,99.9
2022-11-02T01:29:14.064Z,99.9
2022-11-02T01:34:14.073Z,99.9
2022-11-02T01:39:14.080Z,99.9
2022-11-02T01:44:14.066Z,99.9
2022-11-02T01:49:14.048Z,99.9
2022-11-02T01:54:14.223Z,99.9
2022-11-02T01:59:14.078Z,99.9
2022-11-02T02:04:14.049Z,99.9
2022-11-02T02:09:14.054Z,99.9
2022-11-02T02:14:14.050Z,99.9
2022-11-02T02:19:14.060Z,99.9
2022-11-02T02:24:14.029Z,99.9
2022-11-02T02:29:14.053Z,99.9
2022-11-02T02:34:14.075Z,99.9
2022-11-02T02:39:14.057Z,99.9
2022-11-02T02:44:14.166Z,99.9
2022-11-02T02:49:14.044Z,99.9
2022-11-02T02:54:14.028Z,99.9
2022-11-02T02:59:14.049Z,99.9
2022-11-02T03:04:14.038Z,99.9
2022-11-02T03:09:14.025Z,99.9
2022-11-02T03:14:14.029Z,99.9
2022-11-02T03:19:14.054Z,99.9
2022-11-02T03:24:14.044Z,99.9
2022-11-02T03:29:14.032Z,99.9
2022-11-02T03:34:14.031Z,99.9
2022-11-02T03:39:14.069Z,99.9
2022-11-02T03:44:14.043Z,99.9
2022-11-02T03:49:14.026Z,99.9
2022-11-02T03:54:14.023Z,99.9
2022-11-02T03:59:14.035Z,99.9
2022-11-02T04:04:14.011Z,99.9
2022-11-02T04:09:14.016Z,99.9
2022-11-02T04:14:14.008Z,99.9
2022-11-02T04:19:14.031Z,99.9
2022-11-02T04:24:14.021Z,99.9
2022-11-02T04:29:14.004Z,99.9
2022-11-02T04:34:14.027Z,99.9
2022-11-02T04:39:14.037Z,99.9
2022-11-02T04:44:14.019Z,99.9
2022-11-02T04:49:14.005Z,99.9
2022-11-02T04:54:14.014Z,99.8
2022-11-02T04:59:14.248Z,99.7
2022-11-02T05:04:14.006Z,99.6
2022-11-02T05:09:14.008Z,99.6
2022-11-02T05:14:13.995Z,99.1
2022-11-02T05:19:14.033Z,99.3
2022-11-02T05:24:14.001Z,99.4
2022-11-02T05:29:14.004Z,99.1
2022-11-02T05:34:13.993Z,98.9
2022-11-02T05:39:14.025Z,99
2022-11-02T05:44:14.000Z,98.9
2022-11-02T05:49:13.998Z,98.9
2022-11-02T05:54:13.997Z,99
2022-11-02T05:59:14.009Z,99
2022-11-02T06:04:14.042Z,98.9
2022-11-02T06:09:13.987Z,98.9
2022-11-02T06:14:13.997Z,98.8
2022-11-02T06:24:13.978Z,98.5
2022-11-02T06:29:14.036Z,98.7
2022-11-02T06:34:13.990Z,98.9
2022-11-02T06:39:14.004Z,98.5
2022-11-02T06:44:13.972Z,98.2
2022-11-02T06:49:13.990Z,98
2022-11-02T06:54:13.976Z,97.7
2022-11-02T06:59:14.002Z,97.7
2022-11-02T07:04:13.984Z,97.2
2022-11-02T07:09:13.985Z,97.3
2022-11-02T07:14:13.989Z,97.3
2022-11-02T07:19:14.021Z,97
2022-11-02T07:24:13.987Z,97.1
2022-11-02T07:29:14.087Z,97.1
2022-11-02T07:34:16.840Z,97.4
2022-11-02T07:39:14.013Z,98.2
2022-11-02T07:44:13.983Z,97.8
2022-11-02T07:49:17.387Z,97.5
2022-11-02T07:54:13.974Z,97.5
2022-11-02T07:59:14.007Z,97.7
2022-11-02T08:04:14.018Z,96.7
2022-11-02T08:09:13.959Z,96.1
2022-11-02T08:14:13.976Z,96.1
2022-11-02T08:19:14.002Z,95.7
2022-11-02T08:24:13.974Z,96.1
2022-11-02T08:29:13.989Z,96.3
2022-11-02T08:34:14.038Z,96.1
2022-11-02T08:39:18.551Z,96
2022-11-02T08:44:14.006Z,96.7
2022-11-02T08:49:14.106Z,97.3
2022-11-02T08:54:14.113Z,97.3
2022-11-02T08:59:14.135Z,96.9
2022-11-02T09:04:14.254Z,96.6
2022-11-02T09:09:14.247Z,96.9
2022-11-02T09:14:14.303Z,96.7
2022-11-02T09:19:14.407Z,96.3
2022-11-02T09:24:14.279Z,96.5
2022-11-02T09:29:14.491Z,96.1
2022-11-02T09:34:14.252Z,96
2022-11-02T09:39:14.285Z,95.4
2022-11-02T09:44:14.254Z,94.6
2022-11-02T09:49:14.251Z,95.1
2022-11-02T09:54:17.245Z,95
2022-11-02T09:59:14.273Z,93.8
2022-11-02T10:04:14.286Z,92.9
2022-11-02T10:09:14.248Z,92.5
2022-11-02T10:14:14.322Z,91.3
2022-11-02T10:19:14.287Z,91.4
2022-11-02T10:24:14.245Z,90.2
2022-11-02T10:29:14.244Z,86.9
2022-11-02T10:34:14.279Z,84.9
2022-11-02T10:39:14.275Z,82.6
2022-11-02T10:44:14.237Z,80.6
2022-11-02T10:49:14.256Z,78.2
2022-11-02T10:54:15.073Z,77.7
2022-11-02T10:59:14.277Z,76.1
2022-11-02T11:04:14.239Z,75.1
2022-11-02T11:09:14.237Z,74.4
2022-11-02T11:24:14.282Z,70.4
2022-11-02T11:29:14.307Z,70.2
2022-11-02T11:34:14.229Z,70.5
2022-11-02T11:39:14.253Z,71
2022-11-02T11:44:14.234Z,70.8
2022-11-02T11:49:14.211Z,71.2
2022-11-02T11:54:14.233Z,70.8
2022-11-02T11:59:14.245Z,71.3
2022-11-02T12:04:14.218Z,71.8
2022-11-02T12:09:14.215Z,71.6
2022-11-02T12:14:14.221Z,72
2022-11-02T12:19:14.235Z,70.2
2022-11-02T12:24:14.223Z,70.3
2022-11-02T12:29:14.218Z,69.7
2022-11-02T12:34:14.404Z,69.3
2022-11-02T12:39:14.254Z,69.5
2022-11-02T12:44:14.208Z,69.1
2022-11-02T12:49:14.217Z,68.5
2022-11-02T12:54:14.201Z,67.2
2022-11-02T12:59:14.225Z,64.7
2022-11-02T13:04:14.217Z,63.5
2022-11-02T13:09:14.212Z,62.6
2022-11-02T13:14:15.483Z,60.9
2022-11-02T13:19:14.329Z,59.6
2022-11-02T13:24:14.215Z,59.1
2022-11-02T13:29:14.203Z,57.5
2022-11-02T13:34:14.203Z,56.8
2022-11-02T13:39:14.235Z,56.8
2022-11-02T13:44:14.196Z,56.6
2022-11-02T13:49:14.204Z,56.5
2022-11-02T13:54:14.218Z,56.3
2022-11-02T13:59:14.213Z,56.8
2022-11-02T14:04:14.197Z,56.7
2022-11-02T14:09:14.206Z,57.1
2022-11-02T14:14:14.224Z,57.4
2022-11-02T14:19:17.707Z,57.5
2022-11-02T14:24:14.340Z,57.8
2022-11-02T14:29:14.343Z,58
2022-11-02T14:34:14.381Z,58.1
2022-11-02T14:39:14.485Z,58.2
2022-11-02T14:44:14.552Z,58.2
2022-11-02T14:49:14.666Z,57.4
2022-11-02T14:54:14.559Z,56.8
2022-11-02T14:59:14.823Z,56.4
2022-11-02T15:04:14.637Z,56.7
2022-11-02T15:09:14.665Z,56.1
2022-11-02T15:14:14.903Z,55.8
2022-11-02T15:19:14.785Z,55.3
2022-11-02T15:24:16.553Z,55.2
2022-11-02T15:29:14.852Z,55
2022-11-02T15:34:14.956Z,54.9
2022-11-02T15:39:14.803Z,55.1
2022-11-02T15:44:14.781Z,55.2
2022-11-02T15:49:14.769Z,55.1
2022-11-02T15:54:14.851Z,55
2022-11-02T15:59:14.777Z,55.2
2022-11-02T16:09:14.940Z,55.5
2022-11-02T16:14:14.753Z,55.4
2022-11-02T16:19:14.810Z,55.5
2022-11-02T16:24:14.770Z,55.8
2022-11-02T16:29:15.002Z,55.7
2022-11-02T16:34:14.774Z,55.7
2022-11-02T16:39:14.791Z,55.7
2022-11-02T16:44:14.754Z,55.8
2022-11-02T16:49:14.773Z,55.9
2022-11-02T16:54:14.761Z,55.9
2022-11-02T16:59:14.775Z,56
2022-11-02T17:04:14.751Z,56.5
2022-11-02T17:09:14.765Z,56.9
2022-11-02T17:14:14.936Z,57.4
2022-11-02T17:19:15.946Z,57.4
2022-11-02T17:24:14.747Z,57.6
2022-11-02T17:29:14.764Z,57.8
2022-11-02T17:34:14.744Z,57.8
2022-11-02T17:39:14.784Z,57.9
2022-11-02T17:44:14.765Z,58.1
2022-11-02T17:49:14.751Z,58.3
2022-11-02T17:54:14.755Z,58.6
2022-11-02T17:59:14.773Z,59
2022-11-02T18:04:14.760Z,59
2022-11-02T18:09:14.764Z,59.1
2022-11-02T18:14:14.753Z,58.7
2022-11-02T18:19:14.765Z,58.6
2022-11-02T18:24:14.752Z,58.5
2022-11-02T18:29:14.745Z,58.5
2022-11-02T18:34:14.862Z,58.7
2022-11-02T18:39:14.785Z,59.1
2022-11-02T18:44:15.740Z,59.5
2022-11-02T18:49:14.750Z,59.6
2022-11-02T18:54:14.762Z,60
2022-11-02T18:59:14.761Z,60.2
2022-11-02T19:04:17.513Z,60.7
2022-11-02T19:09:14.757Z,61
2022-11-02T19:14:14.740Z,61.5
2022-11-02T19:19:14.770Z,61.5
2022-11-02T19:24:14.745Z,61.6
2022-11-02T19:29:14.762Z,62.2
2022-11-02T19:34:14.737Z,61.9
2022-11-02T19:39:14.759Z,62.6
2022-11-02T19:44:14.748Z,62.5
2022-11-02T19:49:14.759Z,62.4
2022-11-02T19:54:14.904Z,62.6
2022-11-02T19:59:14.773Z,63.3
2022-11-02T20:04:14.745Z,64.1
2022-11-02T20:09:14.738Z,64.8
2022-11-02T20:14:14.740Z,65.8
2022-11-02T20:19:14.771Z,64
2022-11-02T20:24:14.728Z,65.4
2022-11-02T20:29:17.045Z,64.9
2022-11-02T20:34:14.731Z,64.6
2022-11-02T20:39:14.764Z,65.4
2022-11-02T20:44:14.737Z,65.1
2022-11-02T20:49:21.519Z,64.8
2022-11-02T20:54:14.758Z,64.7
2022-11-02T20:59:14.811Z,64.4
2022-11-02T21:04:20.125Z,65.4
2022-11-02T21:09:14.758Z,65.7
2022-11-02T21:14:14.729Z,65.6
2022-11-02T21:19:14.741Z,65.8
2022-11-02T21:24:14.720Z,65.6
2022-11-02T21:29:14.731Z,67.3
2022-11-02T21:34:14.730Z,67.8
2022-11-02T21:39:14.747Z,66.9
2022-11-02T21:44:14.722Z,68.1
2022-11-02T21:49:14.720Z,68.1
2022-11-02T21:54:14.832Z,68.1
2022-11-02T21:59:14.727Z,68.4
2022-11-02T22:04:14.702Z,68.3
2022-11-02T22:09:14.796Z,68.3
2022-11-02T22:14:14.805Z,68.4
2022-11-02T22:19:14.747Z,69
2022-11-02T22:24:14.719Z,68.9
2022-11-02T22:29:14.765Z,69
2022-11-02T22:34:14.716Z,69.4
2022-11-02T22:39:14.723Z,69.2
2022-11-02T22:44:14.702Z,69.3
2022-11-02T22:49:14.708Z,69.3
2022-11-02T22:54:14.697Z,69.8
2022-11-02T22:59:14.721Z,69.7
2022-11-02T23:04:14.709Z,69.9
2022-11-02T23:09:14.707Z,70
2022-11-02T23:14:14.697Z,70.2
2022-11-02T23:19:14.712Z,70.3
2022-11-02T23:24:14.698Z,70
2022-11-02T23:29:14.703Z,69.7
2022-11-02T23:34:14.701Z,70.5
2022-11-02T23:39:14.719Z,70.8
2022-11-02T23:44:14.804Z,70.4
2022-11-02T23:49:14.689Z,70.9
2022-11-02T23:54:14.681Z,71
2022-11-02T23:59:14.712Z,71.2
